Time,TemperatureF,DewpointF,PressureIn,WindDirection,WindDirectionDegrees,WindSpeedMPH,WindSpeedGustMPH,Humidity,HourlyPrecipIn,Conditions,Clouds,dailyrainin,SoftwareType,DateUTC
2013-02-26 00:22:00,64.0,-99.9,-100.00,WSW,242,17.0,-999.0,107,0.00,,,-99.99,,2013-02-26 06:22:00,
2013-02-26 00:32:00,64.0,-99.9,-100.00,WSW,242,17.0,-999.0,107,0.00,,,-99.99,,2013-02-26 06:32:00,
2013-02-26 00:42:00,64.0,-99.9,-100.00,WSW,242,17.0,-999.0,107,0.00,,,-99.99,,2013-02-26 06:42:00,
2013-02-26 01:22:00,64.0,-99.9,-100.00,WSW,254,18.0,-999.0,83,0.00,,,-99.99,,2013-02-26 07:22:00,
2013-02-26 01:32:00,64.0,-99.9,-100.00,WSW,254,18.0,-999.0,83,0.00,,,-99.99,,2013-02-26 07:32:00,
2013-02-26 01:42:00,64.0,-99.9,-100.00,WSW,254,18.0,-999.0,83,0.00,,,-99.99,,2013-02-26 07:42:00,
2013-02-26 02:22:00,62.0,-99.9,-100.00,West,261,17.0,-999.0,72,0.00,,,-99.99,,2013-02-26 08:22:00,
2013-02-26 02:32:00,62.0,-99.9,-100.00,West,261,17.0,-999.0,72,0.00,,,-99.99,,2013-02-26 08:32:00,
2013-02-26 02:42:00,62.0,-99.9,-100.00,West,261,17.0,-999.0,72,0.00,,,-99.99,,2013-02-26 08:42:00,
2013-02-26 03:22:00,60.0,-99.9,-100.00,West,263,17.0,-999.0,75,0.00,,,-99.99,,2013-02-26 09:22:00,
2013-02-26 03:32:00,60.0,-99.9,-100.00,West,263,17.0,-999.0,75,0.00,,,-99.99,,2013-02-26 09:32:00,
2013-02-26 03:43:00,60.0,-99.9,-100.00,West,263,17.0,-999.0,75,0.00,,,-99.99,,2013-02-26 09:43:00,
2013-02-26 04:22:00,58.0,-99.9,-100.00,West,267,19.0,-999.0,71,0.00,,,-99.99,,2013-02-26 10:22:00,
2013-02-26 04:32:00,58.0,-99.9,-100.00,West,267,19.0,-999.0,71,0.00,,,-99.99,,2013-02-26 10:32:00,
2013-02-26 04:42:00,58.0,-99.9,-100.00,West,267,19.0,-999.0,71,0.00,,,-99.99,,2013-02-26 10:42:00,
2013-02-26 05:22:00,56.0,-99.9,-100.00,West,273,13.0,-999.0,73,0.00,,,-99.99,,2013-02-26 11:22:00,
2013-02-26 05:32:00,56.0,-99.9,-100.00,West,273,13.0,-999.0,73,0.00,,,-99.99,,2013-02-26 11:32:00,
2013-02-26 05:42:00,56.0,-99.9,-100.00,West,273,13.0,-999.0,73,0.00,,,-99.99,,2013-02-26 11:42:00,
2013-02-26 06:22:00,53.0,-99.9,-100.00,WNW,286,8.0,-999.0,66,0.00,,,-99.99,,2013-02-26 12:22:00,
2013-02-26 06:33:00,53.0,-99.9,-100.00,WNW,286,8.0,-999.0,66,0.00,,,-99.99,,2013-02-26 12:33:00,
2013-02-26 06:42:00,53.0,-99.9,-100.00,WNW,286,8.0,-999.0,66,0.00,,,-99.99,,2013-02-26 12:42:00,
2013-02-26 07:11:00,52.0,-99.9,-100.00,WNW,285,13.0,-999.0,64,0.00,,,-99.99,,2013-02-26 13:11:00,
2013-02-26 07:22:00,52.0,-99.9,-100.00,WNW,285,13.0,-999.0,64,0.00,,,-99.99,,2013-02-26 13:22:00,
2013-02-26 07:32:00,52.0,-99.9,-100.00,WNW,285,13.0,-999.0,64,0.00,,,-99.99,,2013-02-26 13:32:00,
2013-02-26 07:42:00,52.0,-99.9,-100.00,WNW,285,13.0,-999.0,64,0.00,,,-99.99,,2013-02-26 13:42:00,
2013-02-26 08:22:00,50.0,-99.9,-100.00,WNW,292,12.0,-999.0,68,0.00,,,-99.99,,2013-02-26 14:22:00,
2013-02-26 08:32:00,50.0,-99.9,-100.00,WNW,292,12.0,-999.0,68,0.00,,,-99.99,,2013-02-26 14:32:00,
2013-02-26 08:42:00,50.0,-99.9,-100.00,WNW,292,12.0,-999.0,68,0.00,,,-99.99,,2013-02-26 14:42:00,
2013-02-26 09:22:00,51.0,-99.9,-100.00,West,278,17.0,-999.0,64,0.00,,,-99.99,,2013-02-26 15:22:00,
2013-02-26 09:32:00,51.0,-99.9,-100.00,West,278,17.0,-999.0,64,0.00,,,-99.99,,2013-02-26 15:32:00,
2013-02-26 09:42:00,51.0,-99.9,-100.00,West,278,17.0,-999.0,64,0.00,,,-99.99,,2013-02-26 15:42:00,
2013-02-26 10:22:00,52.0,-99.9,-100.00,West,270,15.0,-999.0,64,0.00,,,-99.99,,2013-02-26 16:22:00,
2013-02-26 10:32:00,52.0,-99.9,-100.00,West,270,15.0,-999.0,64,0.00,,,-99.99,,2013-02-26 16:32:00,
2013-02-26 10:42:00,52.0,-99.9,-100.00,West,270,15.0,-999.0,64,0.00,,,-99.99,,2013-02-26 16:42:00,
2013-02-26 11:22:00,53.0,-99.9,-100.00,West,264,18.0,-999.0,67,0.00,,,-99.99,,2013-02-26 17:22:00,
2013-02-26 11:32:00,53.0,-99.9,-100.00,West,264,18.0,-999.0,67,0.00,,,-99.99,,2013-02-26 17:32:00,
2013-02-26 11:42:00,53.0,-99.9,-100.00,West,264,18.0,-999.0,67,0.00,,,-99.99,,2013-02-26 17:42:00,
2013-02-26 12:22:00,54.0,-99.9,-100.00,West,262,18.0,-999.0,69,0.00,,,-99.99,,2013-02-26 18:22:00,
2013-02-26 12:32:00,54.0,-99.9,-100.00,West,262,18.0,-999.0,69,0.00,,,-99.99,,2013-02-26 18:32:00,
2013-02-26 12:42:00,54.0,-99.9,-100.00,West,262,18.0,-999.0,69,0.00,,,-99.99,,2013-02-26 18:42:00,
2013-02-26 13:22:00,55.0,-99.9,-100.00,West,260,17.0,-999.0,69,0.00,,,-99.99,,2013-02-26 19:22:00,
2013-02-26 13:32:00,55.0,-99.9,-100.00,West,260,17.0,-999.0,69,0.00,,,-99.99,,2013-02-26 19:32:00,
2013-02-26 13:42:00,55.0,-99.9,-100.00,West,260,17.0,-999.0,69,0.00,,,-99.99,,2013-02-26 19:42:00,
2013-02-26 14:22:00,56.0,-99.9,-100.00,West,260,18.0,-999.0,67,0.00,,,-99.99,,2013-02-26 20:22:00,
2013-02-26 14:32:00,56.0,-99.9,-100.00,West,260,18.0,-999.0,67,0.00,,,-99.99,,2013-02-26 20:32:00,
2013-02-26 14:42:00,56.0,-99.9,-100.00,West,260,18.0,-999.0,67,0.00,,,-99.99,,2013-02-26 20:42:00,
2013-02-26 15:21:00,56.0,-99.9,-100.00,WSW,251,18.0,-999.0,67,0.00,,,-99.99,,2013-02-26 21:21:00,
2013-02-26 15:31:00,56.0,-99.9,-100.00,WSW,251,18.0,-999.0,67,0.00,,,-99.99,,2013-02-26 21:31:00,
2013-02-26 15:41:00,56.0,-99.9,-100.00,WSW,251,18.0,-999.0,67,0.00,,,-99.99,,2013-02-26 21:41:00,
2013-02-26 16:11:00,55.0,-99.9,-100.00,WSW,244,18.0,-999.0,68,0.00,,,-99.99,,2013-02-26 22:11:00,
2013-02-26 16:21:00,55.0,-99.9,-100.00,WSW,244,18.0,-999.0,68,0.00,,,-99.99,,2013-02-26 22:21:00,
2013-02-26 16:32:00,55.0,-99.9,-100.00,WSW,244,18.0,-999.0,68,0.00,,,-99.99,,2013-02-26 22:32:00,
2013-02-26 16:42:00,55.0,-99.9,-100.00,WSW,244,18.0,-999.0,68,0.00,,,-99.99,,2013-02-26 22:42:00,
2013-02-26 17:21:00,55.0,-99.9,-100.00,West,261,18.0,-999.0,67,0.00,,,-99.99,,2013-02-26 23:21:00,
2013-02-26 17:32:00,55.0,-99.9,-100.00,West,261,18.0,-999.0,67,0.00,,,-99.99,,2013-02-26 23:32:00,
2013-02-26 17:42:00,55.0,-99.9,-100.00,West,261,18.0,-999.0,67,0.00,,,-99.99,,2013-02-26 23:42:00,
2013-02-26 18:22:00,55.0,-99.9,-100.00,West,264,16.0,-999.0,68,0.00,,,-99.99,,2013-02-27 00:22:00,
2013-02-26 18:32:00,55.0,-99.9,-100.00,West,264,16.0,-999.0,68,0.00,,,-99.99,,2013-02-27 00:32:00,
2013-02-26 18:42:00,55.0,-99.9,-100.00,West,264,16.0,-999.0,68,0.00,,,-99.99,,2013-02-27 00:42:00,
2013-02-26 19:22:00,55.0,-99.9,-100.00,West,267,15.0,-999.0,71,0.00,,,-99.99,,2013-02-27 01:22:00,
2013-02-26 19:32:00,55.0,-99.9,-100.00,West,267,15.0,-999.0,71,0.00,,,-99.99,,2013-02-27 01:32:00,
2013-02-26 19:42:00,55.0,-99.9,-100.00,West,267,15.0,-999.0,71,0.00,,,-99.99,,2013-02-27 01:42:00,
2013-02-26 20:25:00,54.0,-99.9,-100.00,West,275,10.0,-999.0,72,0.00,,,-99.99,,2013-02-27 02:25:00,
2013-02-26 20:32:00,54.0,-99.9,-100.00,West,275,10.0,-999.0,72,0.00,,,-99.99,,2013-02-27 02:32:00,
2013-02-26 20:42:00,54.0,-99.9,-100.00,West,275,10.0,-999.0,72,0.00,,,-99.99,,2013-02-27 02:42:00,
2013-02-26 21:12:00,54.0,-99.9,-100.00,West,275,8.0,-999.0,74,0.00,,,-99.99,,2013-02-27 03:12:00,
2013-02-26 21:22:00,54.0,-99.9,-100.00,West,275,8.0,-999.0,74,0.00,,,-99.99,,2013-02-27 03:22:00,
2013-02-26 21:32:00,54.0,-99.9,-100.00,West,275,8.0,-999.0,74,0.00,,,-99.99,,2013-02-27 03:32:00,
2013-02-26 21:42:00,54.0,-99.9,-100.00,West,275,8.0,-999.0,74,0.00,,,-99.99,,2013-02-27 03:42:00,
2013-02-26 22:12:00,54.0,-99.9,-100.00,WNW,285,6.0,-999.0,76,0.00,,,-99.99,,2013-02-27 04:12:00,
2013-02-26 22:22:00,54.0,-99.9,-100.00,WNW,285,6.0,-999.0,76,0.00,,,-99.99,,2013-02-27 04:22:00,
2013-02-26 22:32:00,54.0,-99.9,-100.00,WNW,285,6.0,-999.0,76,0.00,,,-99.99,,2013-02-27 04:32:00,
2013-02-26 22:42:00,54.0,-99.9,-100.00,WNW,285,6.0,-999.0,76,0.00,,,-99.99,,2013-02-27 04:42:00,
2013-02-26 23:22:00,53.0,-99.9,-100.00,WNW,293,4.0,-999.0,76,0.00,,,-99.99,,2013-02-27 05:22:00,
2013-02-26 23:32:00,53.0,-99.9,-100.00,WNW,293,4.0,-999.0,76,0.00,,,-99.99,,2013-02-27 05:32:00,
2013-02-26 23:42:00,53.0,-99.9,-100.00,WNW,293,4.0,-999.0,76,0.00,,,-99.99,,2013-02-27 05:42:00,